sensor_id;sensor_type;location;lat;lon;timestamp;P1;durP1;ratioP1;P2;durP2;ratioP2
11665;SDS011;5889;51.350;6.708;2022-09-09T00:01:54;0.70;;;0.60;;
11665;SDS011;5889;51.350;6.708;2022-09-09T00:04:27;2.80;;;0.80;;
11665;SDS011;5889;51.350;6.708;2022-09-09T00:06:58;1.60;;;0.60;;
11665;SDS011;5889;51.350;6.708;2022-09-09T00:09:31;1.57;;;0.77;;
11665;SDS011;5889;51.350;6.708;2022-09-09T00:12:06;2.27;;;0.93;;
11665;SDS011;5889;51.350;6.708;2022-09-09T00:14:39;2.40;;;0.80;;
11665;SDS011;5889;51.350;6.708;2022-09-09T00:17:14;1.73;;;0.80;;
11665;SDS011;5889;51.350;6.708;2022-09-09T00:19:47;2.57;;;0.90;;
11665;SDS011;5889;51.350;6.708;2022-09-09T00:22:22;3.80;;;1.10;;
11665;SDS011;5889;51.350;6.708;2022-09-09T00:24:52;1.37;;;0.60;;
11665;SDS011;5889;51.350;6.708;2022-09-09T00:27:23;2.13;;;0.80;;
11665;SDS011;5889;51.350;6.708;2022-09-09T00:29:57;2.33;;;1.00;;
11665;SDS011;5889;51.350;6.708;2022-09-09T00:32:29;2.43;;;0.90;;
11665;SDS011;5889;51.350;6.708;2022-09-09T00:34:57;1.83;;;1.03;;
11665;SDS011;5889;51.350;6.708;2022-09-09T00:37:28;2.03;;;0.80;;
11665;SDS011;5889;51.350;6.708;2022-09-09T00:40:00;1.90;;;0.80;;
11665;SDS011;5889;51.350;6.708;2022-09-09T00:42:33;3.17;;;0.73;;
11665;SDS011;5889;51.350;6.708;2022-09-09T00:45:10;2.27;;;1.03;;
11665;SDS011;5889;51.350;6.708;2022-09-09T00:47:52;2.80;;;1.50;;
11665;SDS011;5889;51.350;6.708;2022-09-09T00:50:32;5.13;;;2.43;;
11665;SDS011;5889;51.350;6.708;2022-09-09T00:53:11;5.73;;;3.10;;
11665;SDS011;5889;51.350;6.708;2022-09-09T00:55:59;3.60;;;3.30;;
11665;SDS011;5889;51.350;6.708;2022-09-09T00:58:35;4.00;;;3.07;;
11665;SDS011;5889;51.350;6.708;2022-09-09T01:01:02;4.83;;;3.10;;
11665;SDS011;5889;51.350;6.708;2022-09-09T01:03:33;5.57;;;3.43;;
11665;SDS011;5889;51.350;6.708;2022-09-09T01:06:04;4.70;;;2.93;;
11665;SDS011;5889;51.350;6.708;2022-09-09T01:11:46;5.53;;;2.70;;
11665;SDS011;5889;51.350;6.708;2022-09-09T01:14:22;3.03;;;2.20;;
11665;SDS011;5889;51.350;6.708;2022-09-09T01:16:58;6.10;;;1.93;;
11665;SDS011;5889;51.350;6.708;2022-09-09T01:19:34;6.37;;;2.00;;
11665;SDS011;5889;51.350;6.708;2022-09-09T01:22:11;3.33;;;1.80;;
11665;SDS011;5889;51.350;6.708;2022-09-09T01:24:51;2.13;;;1.57;;
11665;SDS011;5889;51.350;6.708;2022-09-09T01:27:39;3.77;;;1.33;;
11665;SDS011;5889;51.350;6.708;2022-09-09T01:30:08;1.70;;;1.57;;
11665;SDS011;5889;51.350;6.708;2022-09-09T01:32:38;2.23;;;1.80;;
11665;SDS011;5889;51.350;6.708;2022-09-09T01:35:08;3.90;;;1.50;;
11665;SDS011;5889;51.350;6.708;2022-09-09T01:37:38;4.27;;;1.40;;
11665;SDS011;5889;51.350;6.708;2022-09-09T01:40:06;4.43;;;1.60;;
11665;SDS011;5889;51.350;6.708;2022-09-09T01:42:33;3.23;;;1.20;;
11665;SDS011;5889;51.350;6.708;2022-09-09T01:45:01;3.47;;;1.50;;
11665;SDS011;5889;51.350;6.708;2022-09-09T01:47:28;2.87;;;1.40;;
11665;SDS011;5889;51.350;6.708;2022-09-09T01:49:55;3.53;;;1.50;;
11665;SDS011;5889;51.350;6.708;2022-09-09T01:52:22;3.73;;;1.60;;
11665;SDS011;5889;51.350;6.708;2022-09-09T01:54:49;3.07;;;1.47;;
11665;SDS011;5889;51.350;6.708;2022-09-09T01:57:17;3.37;;;2.13;;
11665;SDS011;5889;51.350;6.708;2022-09-09T01:59:51;4.67;;;1.97;;
11665;SDS011;5889;51.350;6.708;2022-09-09T02:02:29;5.40;;;1.77;;
11665;SDS011;5889;51.350;6.708;2022-09-09T02:05:01;3.47;;;1.90;;
11665;SDS011;5889;51.350;6.708;2022-09-09T02:07:38;2.77;;;2.13;;
11665;SDS011;5889;51.350;6.708;2022-09-09T02:10:09;3.10;;;1.60;;
11665;SDS011;5889;51.350;6.708;2022-09-09T02:12:39;4.67;;;2.00;;
11665;SDS011;5889;51.350;6.708;2022-09-09T02:15:11;3.90;;;2.03;;
11665;SDS011;5889;51.350;6.708;2022-09-09T02:17:45;4.43;;;2.00;;
11665;SDS011;5889;51.350;6.708;2022-09-09T02:20:13;6.57;;;2.97;;
11665;SDS011;5889;51.350;6.708;2022-09-09T02:22:42;8.97;;;3.00;;
11665;SDS011;5889;51.350;6.708;2022-09-09T02:25:13;5.77;;;2.70;;
11665;SDS011;5889;51.350;6.708;2022-09-09T02:27:43;8.40;;;2.80;;
11665;SDS011;5889;51.350;6.708;2022-09-09T02:30:12;5.20;;;2.80;;
11665;SDS011;5889;51.350;6.708;2022-09-09T02:32:40;5.90;;;2.50;;
11665;SDS011;5889;51.350;6.708;2022-09-09T02:35:11;4.73;;;2.60;;
11665;SDS011;5889;51.350;6.708;2022-09-09T02:37:41;5.67;;;2.27;;
11665;SDS011;5889;51.350;6.708;2022-09-09T02:40:11;3.97;;;2.00;;
11665;SDS011;5889;51.350;6.708;2022-09-09T02:42:40;8.10;;;1.90;;
11665;SDS011;5889;51.350;6.708;2022-09-09T02:45:09;6.20;;;1.87;;
11665;SDS011;5889;51.350;6.708;2022-09-09T02:47:37;2.67;;;1.43;;
11665;SDS011;5889;51.350;6.708;2022-09-09T02:50:11;3.73;;;1.40;;
11665;SDS011;5889;51.350;6.708;2022-09-09T02:52:43;3.23;;;1.57;;
11665;SDS011;5889;51.350;6.708;2022-09-09T02:55:20;5.77;;;1.57;;
11665;SDS011;5889;51.350;6.708;2022-09-09T02:57:55;8.60;;;1.70;;
11665;SDS011;5889;51.350;6.708;2022-09-09T03:00:23;4.97;;;1.57;;
11665;SDS011;5889;51.350;6.708;2022-09-09T03:02:50;4.07;;;1.13;;
11665;SDS011;5889;51.350;6.708;2022-09-09T03:05:19;2.63;;;1.50;;
11665;SDS011;5889;51.350;6.708;2022-09-09T03:07:46;4.57;;;1.83;;
11665;SDS011;5889;51.350;6.708;2022-09-09T03:10:14;3.27;;;1.40;;
11665;SDS011;5889;51.350;6.708;2022-09-09T03:12:41;5.93;;;1.80;;
11665;SDS011;5889;51.350;6.708;2022-09-09T03:15:08;6.67;;;1.70;;
11665;SDS011;5889;51.350;6.708;2022-09-09T03:17:35;8.43;;;1.73;;
11665;SDS011;5889;51.350;6.708;2022-09-09T03:20:02;6.10;;;1.50;;
11665;SDS011;5889;51.350;6.708;2022-09-09T03:22:31;4.20;;;1.93;;
11665;SDS011;5889;51.350;6.708;2022-09-09T03:24:58;6.63;;;1.97;;
11665;SDS011;5889;51.350;6.708;2022-09-09T03:27:24;4.50;;;1.70;;
11665;SDS011;5889;51.350;6.708;2022-09-09T03:29:51;5.83;;;1.97;;
11665;SDS011;5889;51.350;6.708;2022-09-09T03:32:18;6.20;;;1.93;;
11665;SDS011;5889;51.350;6.708;2022-09-09T03:34:47;4.40;;;1.87;;
11665;SDS011;5889;51.350;6.708;2022-09-09T03:37:14;5.50;;;1.93;;
11665;SDS011;5889;51.350;6.708;2022-09-09T03:39:44;4.13;;;1.30;;
11665;SDS011;5889;51.350;6.708;2022-09-09T03:42:12;5.70;;;1.60;;
11665;SDS011;5889;51.350;6.708;2022-09-09T03:44:43;3.63;;;1.40;;
11665;SDS011;5889;51.350;6.708;2022-09-09T03:47:15;3.17;;;1.20;;
11665;SDS011;5889;51.350;6.708;2022-09-09T03:49:42;5.67;;;1.60;;
11665;SDS011;5889;51.350;6.708;2022-09-09T03:52:09;4.63;;;1.53;;
11665;SDS011;5889;51.350;6.708;2022-09-09T03:54:36;9.93;;;4.73;;
11665;SDS011;5889;51.350;6.708;2022-09-09T03:57:05;7.37;;;1.77;;
11665;SDS011;5889;51.350;6.708;2022-09-09T03:59:32;7.30;;;1.80;;
11665;SDS011;5889;51.350;6.708;2022-09-09T04:02:00;4.03;;;1.70;;
11665;SDS011;5889;51.350;6.708;2022-09-09T04:04:27;6.13;;;1.70;;
11665;SDS011;5889;51.350;6.708;2022-09-09T04:06:54;5.27;;;2.07;;
11665;SDS011;5889;51.350;6.708;2022-09-09T04:09:20;5.67;;;2.00;;
11665;SDS011;5889;51.350;6.708;2022-09-09T04:11:48;4.20;;;1.60;;
11665;SDS011;5889;51.350;6.708;2022-09-09T04:14:16;4.73;;;1.97;;
11665;SDS011;5889;51.350;6.708;2022-09-09T04:16:43;2.83;;;1.80;;
11665;SDS011;5889;51.350;6.708;2022-09-09T04:19:09;6.03;;;1.33;;
11665;SDS011;5889;51.350;6.708;2022-09-09T04:21:37;3.47;;;1.50;;
11665;SDS011;5889;51.350;6.708;2022-09-09T04:24:05;3.20;;;1.63;;
11665;SDS011;5889;51.350;6.708;2022-09-09T04:26:32;8.17;;;2.03;;
11665;SDS011;5889;51.350;6.708;2022-09-09T04:28:59;4.97;;;1.90;;
11665;SDS011;5889;51.350;6.708;2022-09-09T04:31:28;4.47;;;1.60;;
11665;SDS011;5889;51.350;6.708;2022-09-09T04:33:55;6.47;;;1.90;;
11665;SDS011;5889;51.350;6.708;2022-09-09T04:36:22;5.67;;;1.63;;
11665;SDS011;5889;51.350;6.708;2022-09-09T04:38:48;5.97;;;1.50;;
11665;SDS011;5889;51.350;6.708;2022-09-09T04:41:15;3.20;;;1.87;;
11665;SDS011;5889;51.350;6.708;2022-09-09T04:43:42;6.53;;;1.90;;
11665;SDS011;5889;51.350;6.708;2022-09-09T04:46:09;7.17;;;1.87;;
11665;SDS011;5889;51.350;6.708;2022-09-09T04:48:38;6.33;;;1.90;;
11665;SDS011;5889;51.350;6.708;2022-09-09T04:51:06;5.73;;;1.70;;
11665;SDS011;5889;51.350;6.708;2022-09-09T04:53:34;4.40;;;1.90;;
11665;SDS011;5889;51.350;6.708;2022-09-09T04:56:03;7.93;;;1.77;;
11665;SDS011;5889;51.350;6.708;2022-09-09T04:58:31;3.33;;;1.63;;
11665;SDS011;5889;51.350;6.708;2022-09-09T05:01:03;6.43;;;2.10;;
11665;SDS011;5889;51.350;6.708;2022-09-09T05:03:30;6.57;;;1.90;;
11665;SDS011;5889;51.350;6.708;2022-09-09T05:06:03;7.23;;;2.10;;
11665;SDS011;5889;51.350;6.708;2022-09-09T05:08:30;5.07;;;1.77;;
11665;SDS011;5889;51.350;6.708;2022-09-09T05:10:57;6.17;;;1.97;;
11665;SDS011;5889;51.350;6.708;2022-09-09T05:13:25;15.07;;;2.27;;
11665;SDS011;5889;51.350;6.708;2022-09-09T05:15:52;9.03;;;1.93;;
11665;SDS011;5889;51.350;6.708;2022-09-09T05:18:19;5.50;;;2.13;;
11665;SDS011;5889;51.350;6.708;2022-09-09T05:20:47;5.93;;;2.20;;
11665;SDS011;5889;51.350;6.708;2022-09-09T05:23:15;7.30;;;1.90;;
11665;SDS011;5889;51.350;6.708;2022-09-09T05:25:42;10.10;;;2.10;;
11665;SDS011;5889;51.350;6.708;2022-09-09T05:28:08;6.63;;;1.80;;
11665;SDS011;5889;51.350;6.708;2022-09-09T05:30:36;3.40;;;1.80;;
11665;SDS011;5889;51.350;6.708;2022-09-09T05:33:03;17.50;;;2.27;;
11665;SDS011;5889;51.350;6.708;2022-09-09T05:35:31;7.87;;;2.10;;
11665;SDS011;5889;51.350;6.708;2022-09-09T05:37:59;7.47;;;1.80;;
11665;SDS011;5889;51.350;6.708;2022-09-09T05:40:28;5.23;;;2.00;;
11665;SDS011;5889;51.350;6.708;2022-09-09T05:42:55;10.60;;;2.20;;
11665;SDS011;5889;51.350;6.708;2022-09-09T05:45:26;10.17;;;2.10;;
11665;SDS011;5889;51.350;6.708;2022-09-09T05:47:53;4.97;;;1.80;;
11665;SDS011;5889;51.350;6.708;2022-09-09T05:50:20;8.80;;;2.23;;
11665;SDS011;5889;51.350;6.708;2022-09-09T05:52:47;5.17;;;2.00;;
11665;SDS011;5889;51.350;6.708;2022-09-09T05:55:14;6.67;;;2.20;;
11665;SDS011;5889;51.350;6.708;2022-09-09T05:57:42;7.27;;;2.20;;
11665;SDS011;5889;51.350;6.708;2022-09-09T06:00:14;6.80;;;1.97;;
11665;SDS011;5889;51.350;6.708;2022-09-09T06:02:55;8.60;;;2.20;;
11665;SDS011;5889;51.350;6.708;2022-09-09T06:05:29;8.40;;;2.23;;
11665;SDS011;5889;51.350;6.708;2022-09-09T06:07:56;5.93;;;2.63;;
11665;SDS011;5889;51.350;6.708;2022-09-09T06:10:23;7.17;;;1.90;;
11665;SDS011;5889;51.350;6.708;2022-09-09T06:12:53;7.17;;;2.07;;
11665;SDS011;5889;51.350;6.708;2022-09-09T06:15:20;8.23;;;2.43;;
11665;SDS011;5889;51.350;6.708;2022-09-09T06:17:46;5.47;;;2.13;;
11665;SDS011;5889;51.350;6.708;2022-09-09T06:20:19;6.73;;;2.33;;
11665;SDS011;5889;51.350;6.708;2022-09-09T06:22:46;7.97;;;2.27;;
11665;SDS011;5889;51.350;6.708;2022-09-09T06:25:14;8.77;;;2.37;;
11665;SDS011;5889;51.350;6.708;2022-09-09T06:27:41;7.03;;;2.23;;
11665;SDS011;5889;51.350;6.708;2022-09-09T06:30:10;11.23;;;2.50;;
11665;SDS011;5889;51.350;6.708;2022-09-09T06:32:37;6.77;;;2.10;;
11665;SDS011;5889;51.350;6.708;2022-09-09T06:35:04;5.87;;;2.20;;
11665;SDS011;5889;51.350;6.708;2022-09-09T06:37:32;9.40;;;2.10;;
11665;SDS011;5889;51.350;6.708;2022-09-09T06:39:59;5.03;;;1.63;;
11665;SDS011;5889;51.350;6.708;2022-09-09T06:42:26;8.83;;;1.90;;
11665;SDS011;5889;51.350;6.708;2022-09-09T06:44:52;5.97;;;2.00;;
11665;SDS011;5889;51.350;6.708;2022-09-09T06:47:21;6.67;;;1.70;;
11665;SDS011;5889;51.350;6.708;2022-09-09T06:49:47;4.23;;;1.70;;
11665;SDS011;5889;51.350;6.708;2022-09-09T06:52:14;6.40;;;1.80;;
11665;SDS011;5889;51.350;6.708;2022-09-09T06:54:43;6.70;;;1.80;;
11665;SDS011;5889;51.350;6.708;2022-09-09T06:57:10;9.23;;;2.20;;
11665;SDS011;5889;51.350;6.708;2022-09-09T06:59:37;7.27;;;2.53;;
11665;SDS011;5889;51.350;6.708;2022-09-09T07:02:04;6.70;;;2.00;;
11665;SDS011;5889;51.350;6.708;2022-09-09T07:04:32;7.07;;;2.03;;
11665;SDS011;5889;51.350;6.708;2022-09-09T07:06:59;7.23;;;1.73;;
11665;SDS011;5889;51.350;6.708;2022-09-09T07:09:26;7.43;;;1.67;;
11665;SDS011;5889;51.350;6.708;2022-09-09T07:11:54;8.57;;;2.33;;
11665;SDS011;5889;51.350;6.708;2022-09-09T07:14:22;5.57;;;2.10;;
11665;SDS011;5889;51.350;6.708;2022-09-09T07:16:49;5.07;;;1.60;;
11665;SDS011;5889;51.350;6.708;2022-09-09T07:19:15;6.33;;;2.00;;
11665;SDS011;5889;51.350;6.708;2022-09-09T07:21:44;5.23;;;1.57;;
11665;SDS011;5889;51.350;6.708;2022-09-09T07:24:10;5.77;;;1.60;;
11665;SDS011;5889;51.350;6.708;2022-09-09T07:26:38;7.07;;;1.90;;
11665;SDS011;5889;51.350;6.708;2022-09-09T07:29:05;9.37;;;2.23;;
11665;SDS011;5889;51.350;6.708;2022-09-09T07:31:34;4.67;;;1.50;;
11665;SDS011;5889;51.350;6.708;2022-09-09T07:34:02;5.47;;;1.50;;
11665;SDS011;5889;51.350;6.708;2022-09-09T07:36:30;5.13;;;1.50;;
11665;SDS011;5889;51.350;6.708;2022-09-09T07:39:00;6.80;;;1.60;;
11665;SDS011;5889;51.350;6.708;2022-09-09T07:41:30;6.73;;;1.90;;
11665;SDS011;5889;51.350;6.708;2022-09-09T07:43:59;5.33;;;1.30;;
11665;SDS011;5889;51.350;6.708;2022-09-09T07:46:30;5.33;;;1.60;;
11665;SDS011;5889;51.350;6.708;2022-09-09T07:48:56;7.10;;;1.40;;
11665;SDS011;5889;51.350;6.708;2022-09-09T07:51:25;7.87;;;1.73;;
11665;SDS011;5889;51.350;6.708;2022-09-09T07:53:53;6.73;;;1.70;;
11665;SDS011;5889;51.350;6.708;2022-09-09T07:56:24;8.17;;;2.60;;
11665;SDS011;5889;51.350;6.708;2022-09-09T07:58:52;8.15;;;1.92;;
11665;SDS011;5889;51.350;6.708;2022-09-09T08:01:21;4.97;;;1.40;;
11665;SDS011;5889;51.350;6.708;2022-09-09T08:03:52;5.97;;;1.53;;
11665;SDS011;5889;51.350;6.708;2022-09-09T08:06:20;5.87;;;1.63;;
11665;SDS011;5889;51.350;6.708;2022-09-09T08:08:50;6.80;;;1.60;;
11665;SDS011;5889;51.350;6.708;2022-09-09T08:11:17;4.37;;;1.73;;
11665;SDS011;5889;51.350;6.708;2022-09-09T08:13:46;6.37;;;1.50;;
11665;SDS011;5889;51.350;6.708;2022-09-09T08:16:14;6.55;;;1.55;;
11665;SDS011;5889;51.350;6.708;2022-09-09T08:18:42;9.50;;;2.03;;
11665;SDS011;5889;51.350;6.708;2022-09-09T08:21:11;5.77;;;1.90;;
11665;SDS011;5889;51.350;6.708;2022-09-09T08:23:39;9.55;;;2.63;;
11665;SDS011;5889;51.350;6.708;2022-09-09T08:26:09;5.85;;;2.00;;
11665;SDS011;5889;51.350;6.708;2022-09-09T08:28:41;4.40;;;1.60;;
11665;SDS011;5889;51.350;6.708;2022-09-09T08:31:18;5.53;;;1.23;;
11665;SDS011;5889;51.350;6.708;2022-09-09T08:33:46;4.20;;;0.98;;
11665;SDS011;5889;51.350;6.708;2022-09-09T08:36:29;4.43;;;1.40;;
11665;SDS011;5889;51.350;6.708;2022-09-09T08:39:13;6.13;;;1.40;;
11665;SDS011;5889;51.350;6.708;2022-09-09T08:45:14;5.45;;;1.50;;
11665;SDS011;5889;51.350;6.708;2022-09-09T08:48:11;5.78;;;1.48;;
11665;SDS011;5889;51.350;6.708;2022-09-09T08:50:45;3.13;;;1.08;;
11665;SDS011;5889;51.350;6.708;2022-09-09T08:53:16;4.78;;;1.20;;
11665;SDS011;5889;51.350;6.708;2022-09-09T08:55:47;6.38;;;1.90;;
11665;SDS011;5889;51.350;6.708;2022-09-09T08:58:16;6.53;;;1.70;;
11665;SDS011;5889;51.350;6.708;2022-09-09T09:00:50;5.55;;;1.30;;
11665;SDS011;5889;51.350;6.708;2022-09-09T09:03:35;5.50;;;1.55;;
11665;SDS011;5889;51.350;6.708;2022-09-09T09:06:18;5.15;;;1.30;;
11665;SDS011;5889;51.350;6.708;2022-09-09T09:08:57;5.47;;;1.85;;
11665;SDS011;5889;51.350;6.708;2022-09-09T09:11:33;11.32;;;1.90;;
11665;SDS011;5889;51.350;6.708;2022-09-09T09:14:02;3.75;;;1.27;;
11665;SDS011;5889;51.350;6.708;2022-09-09T09:16:38;5.68;;;1.27;;
11665;SDS011;5889;51.350;6.708;2022-09-09T09:19:14;10.05;;;1.77;;
11665;SDS011;5889;51.350;6.708;2022-09-09T09:21:43;4.95;;;1.40;;
11665;SDS011;5889;51.350;6.708;2022-09-09T09:24:13;6.00;;;1.65;;
11665;SDS011;5889;51.350;6.708;2022-09-09T09:26:45;8.13;;;1.60;;
11665;SDS011;5889;51.350;6.708;2022-09-09T09:29:12;4.32;;;1.27;;
11665;SDS011;5889;51.350;6.708;2022-09-09T09:31:41;6.53;;;1.77;;
11665;SDS011;5889;51.350;6.708;2022-09-09T09:34:14;9.57;;;1.70;;
11665;SDS011;5889;51.350;6.708;2022-09-09T09:36:42;7.30;;;1.80;;
11665;SDS011;5889;51.350;6.708;2022-09-09T09:39:22;3.22;;;1.20;;
11665;SDS011;5889;51.350;6.708;2022-09-09T09:41:49;6.07;;;1.30;;
11665;SDS011;5889;51.350;6.708;2022-09-09T09:44:24;7.20;;;1.50;;
11665;SDS011;5889;51.350;6.708;2022-09-09T09:46:53;4.35;;;1.30;;
11665;SDS011;5889;51.350;6.708;2022-09-09T09:49:34;5.45;;;1.35;;
11665;SDS011;5889;51.350;6.708;2022-09-09T09:52:01;4.75;;;1.45;;
11665;SDS011;5889;51.350;6.708;2022-09-09T09:54:28;5.07;;;1.30;;
11665;SDS011;5889;51.350;6.708;2022-09-09T09:57:06;3.30;;;1.30;;
11665;SDS011;5889;51.350;6.708;2022-09-09T09:59:35;3.85;;;1.08;;
11665;SDS011;5889;51.350;6.708;2022-09-09T10:02:18;4.90;;;1.08;;
11665;SDS011;5889;51.350;6.708;2022-09-09T10:04:59;3.13;;;1.00;;
11665;SDS011;5889;51.350;6.708;2022-09-09T10:07:28;2.22;;;1.10;;
11665;SDS011;5889;51.350;6.708;2022-09-09T10:09:55;4.45;;;1.75;;
11665;SDS011;5889;51.350;6.708;2022-09-09T10:12:26;6.10;;;1.50;;
11665;SDS011;5889;51.350;6.708;2022-09-09T10:15:05;5.45;;;1.58;;
11665;SDS011;5889;51.350;6.708;2022-09-09T10:17:40;5.90;;;1.50;;
11665;SDS011;5889;51.350;6.708;2022-09-09T10:20:20;6.63;;;2.15;;
11665;SDS011;5889;51.350;6.708;2022-09-09T10:22:57;4.50;;;1.77;;
11665;SDS011;5889;51.350;6.708;2022-09-09T10:25:35;5.30;;;1.10;;
11665;SDS011;5889;51.350;6.708;2022-09-09T10:28:30;4.40;;;1.08;;
11665;SDS011;5889;51.350;6.708;2022-09-09T10:31:09;5.70;;;1.33;;
11665;SDS011;5889;51.350;6.708;2022-09-09T10:33:46;4.93;;;1.13;;
11665;SDS011;5889;51.350;6.708;2022-09-09T10:36:19;3.83;;;0.80;;
11665;SDS011;5889;51.350;6.708;2022-09-09T10:38:48;6.65;;;1.10;;
11665;SDS011;5889;51.350;6.708;2022-09-09T10:41:25;3.28;;;1.30;;
11665;SDS011;5889;51.350;6.708;2022-09-09T10:44:11;2.20;;;1.10;;
11665;SDS011;5889;51.350;6.708;2022-09-09T10:46:56;5.13;;;1.73;;
11665;SDS011;5889;51.350;6.708;2022-09-09T10:49:52;6.68;;;1.85;;
11665;SDS011;5889;51.350;6.708;2022-09-09T10:52:32;4.53;;;1.25;;
11665;SDS011;5889;51.350;6.708;2022-09-09T10:55:09;3.25;;;1.02;;
11665;SDS011;5889;51.350;6.708;2022-09-09T10:57:39;2.20;;;1.15;;
11665;SDS011;5889;51.350;6.708;2022-09-09T11:00:14;6.20;;;1.05;;
11665;SDS011;5889;51.350;6.708;2022-09-09T11:02:43;3.00;;;0.90;;
11665;SDS011;5889;51.350;6.708;2022-09-09T11:05:10;7.38;;;1.23;;
11665;SDS011;5889;51.350;6.708;2022-09-09T11:07:46;5.30;;;1.33;;
11665;SDS011;5889;51.350;6.708;2022-09-09T11:10:21;3.05;;;1.02;;
11665;SDS011;5889;51.350;6.708;2022-09-09T11:12:51;8.10;;;1.40;;
11665;SDS011;5889;51.350;6.708;2022-09-09T11:15:26;5.53;;;1.33;;
11665;SDS011;5889;51.350;6.708;2022-09-09T11:17:58;3.42;;;1.30;;
11665;SDS011;5889;51.350;6.708;2022-09-09T11:20:31;3.15;;;1.00;;
11665;SDS011;5889;51.350;6.708;2022-09-09T11:22:59;5.07;;;1.00;;
11665;SDS011;5889;51.350;6.708;2022-09-09T11:25:31;3.17;;;1.13;;
11665;SDS011;5889;51.350;6.708;2022-09-09T11:28:06;4.05;;;0.90;;
11665;SDS011;5889;51.350;6.708;2022-09-09T11:30:49;1.42;;;0.77;;
11665;SDS011;5889;51.350;6.708;2022-09-09T11:36:28;5.47;;;0.90;;
11665;SDS011;5889;51.350;6.708;2022-09-09T11:39:09;5.85;;;1.55;;
11665;SDS011;5889;51.350;6.708;2022-09-09T11:42:07;2.78;;;1.05;;
11665;SDS011;5889;51.350;6.708;2022-09-09T11:44:43;2.97;;;1.10;;
11665;SDS011;5889;51.350;6.708;2022-09-09T11:47:15;3.53;;;0.63;;
11665;SDS011;5889;51.350;6.708;2022-09-09T11:49:49;2.50;;;1.20;;
11665;SDS011;5889;51.350;6.708;2022-09-09T11:52:20;5.75;;;0.90;;
11665;SDS011;5889;51.350;6.708;2022-09-09T11:54:52;6.97;;;1.25;;
11665;SDS011;5889;51.350;6.708;2022-09-09T11:57:23;4.13;;;1.70;;
11665;SDS011;5889;51.350;6.708;2022-09-09T11:59:53;6.05;;;1.10;;
11665;SDS011;5889;51.350;6.708;2022-09-09T12:02:22;6.30;;;1.13;;
11665;SDS011;5889;51.350;6.708;2022-09-09T12:04:55;3.72;;;1.20;;
11665;SDS011;5889;51.350;6.708;2022-09-09T12:07:28;6.32;;;0.77;;
11665;SDS011;5889;51.350;6.708;2022-09-09T12:10:03;5.47;;;1.30;;
11665;SDS011;5889;51.350;6.708;2022-09-09T12:12:33;1.50;;;0.70;;
11665;SDS011;5889;51.350;6.708;2022-09-09T12:15:03;3.90;;;0.75;;
11665;SDS011;5889;51.350;6.708;2022-09-09T12:17:54;5.78;;;1.00;;
11665;SDS011;5889;51.350;6.708;2022-09-09T12:20:23;2.80;;;0.95;;
11665;SDS011;5889;51.350;6.708;2022-09-09T12:23:00;3.58;;;0.90;;
11665;SDS011;5889;51.350;6.708;2022-09-09T12:25:51;2.58;;;0.80;;
11665;SDS011;5889;51.350;6.708;2022-09-09T12:28:25;2.13;;;0.70;;
11665;SDS011;5889;51.350;6.708;2022-09-09T12:31:01;3.70;;;1.25;;
11665;SDS011;5889;51.350;6.708;2022-09-09T12:33:33;6.25;;;1.50;;
11665;SDS011;5889;51.350;6.708;2022-09-09T12:36:01;8.65;;;1.73;;
11665;SDS011;5889;51.350;6.708;2022-09-09T12:38:32;5.75;;;1.40;;
11665;SDS011;5889;51.350;6.708;2022-09-09T12:41:03;6.57;;;1.70;;
11665;SDS011;5889;51.350;6.708;2022-09-09T12:43:30;3.58;;;1.52;;
11665;SDS011;5889;51.350;6.708;2022-09-09T12:45:57;5.50;;;1.65;;
11665;SDS011;5889;51.350;6.708;2022-09-09T12:48:28;3.45;;;1.33;;
11665;SDS011;5889;51.350;6.708;2022-09-09T12:50:59;3.22;;;1.30;;
11665;SDS011;5889;51.350;6.708;2022-09-09T12:53:28;5.70;;;1.67;;
11665;SDS011;5889;51.350;6.708;2022-09-09T12:55:57;6.22;;;1.85;;
11665;SDS011;5889;51.350;6.708;2022-09-09T12:58:27;4.13;;;1.65;;
11665;SDS011;5889;51.350;6.708;2022-09-09T13:00:57;4.63;;;1.53;;
11665;SDS011;5889;51.350;6.708;2022-09-09T13:03:25;4.35;;;1.52;;
11665;SDS011;5889;51.350;6.708;2022-09-09T13:05:53;2.72;;;1.45;;
11665;SDS011;5889;51.350;6.708;2022-09-09T13:08:25;7.00;;;1.60;;
11665;SDS011;5889;51.350;6.708;2022-09-09T13:10:53;4.15;;;1.40;;
11665;SDS011;5889;51.350;6.708;2022-09-09T13:13:25;4.63;;;1.35;;
11665;SDS011;5889;51.350;6.708;2022-09-09T13:15:56;3.08;;;1.58;;
11665;SDS011;5889;51.350;6.708;2022-09-09T13:18:26;3.90;;;1.30;;
11665;SDS011;5889;51.350;6.708;2022-09-09T13:20:55;3.67;;;1.63;;
11665;SDS011;5889;51.350;6.708;2022-09-09T13:23:24;3.75;;;1.48;;
11665;SDS011;5889;51.350;6.708;2022-09-09T13:25:55;5.68;;;1.92;;
11665;SDS011;5889;51.350;6.708;2022-09-09T13:28:23;6.72;;;1.55;;
11665;SDS011;5889;51.350;6.708;2022-09-09T13:30:57;5.10;;;1.67;;
11665;SDS011;5889;51.350;6.708;2022-09-09T13:33:29;2.00;;;1.27;;
11665;SDS011;5889;51.350;6.708;2022-09-09T13:36:02;2.88;;;1.20;;
11665;SDS011;5889;51.350;6.708;2022-09-09T13:38:32;3.70;;;1.40;;
11665;SDS011;5889;51.350;6.708;2022-09-09T13:41:02;3.55;;;1.35;;
11665;SDS011;5889;51.350;6.708;2022-09-09T13:43:31;4.70;;;1.33;;
11665;SDS011;5889;51.350;6.708;2022-09-09T13:46:03;4.97;;;1.40;;
11665;SDS011;5889;51.350;6.708;2022-09-09T13:48:31;4.78;;;1.45;;
11665;SDS011;5889;51.350;6.708;2022-09-09T13:51:00;4.78;;;1.30;;
11665;SDS011;5889;51.350;6.708;2022-09-09T13:53:30;3.85;;;1.27;;
11665;SDS011;5889;51.350;6.708;2022-09-09T13:55:57;6.53;;;2.20;;
11665;SDS011;5889;51.350;6.708;2022-09-09T13:58:24;3.75;;;1.42;;
11665;SDS011;5889;51.350;6.708;2022-09-09T14:00:51;4.38;;;1.50;;
11665;SDS011;5889;51.350;6.708;2022-09-09T14:03:20;7.15;;;1.33;;
11665;SDS011;5889;51.350;6.708;2022-09-09T14:05:47;3.13;;;1.20;;
11665;SDS011;5889;51.350;6.708;2022-09-09T14:08:16;3.65;;;1.35;;
11665;SDS011;5889;51.350;6.708;2022-09-09T14:10:48;6.85;;;1.27;;
11665;SDS011;5889;51.350;6.708;2022-09-09T14:13:15;4.18;;;1.10;;
11665;SDS011;5889;51.350;6.708;2022-09-09T14:15:42;4.45;;;1.30;;
11665;SDS011;5889;51.350;6.708;2022-09-09T14:18:09;4.60;;;1.58;;
11665;SDS011;5889;51.350;6.708;2022-09-09T14:20:40;6.93;;;1.20;;
11665;SDS011;5889;51.350;6.708;2022-09-09T14:23:09;7.50;;;1.52;;
11665;SDS011;5889;51.350;6.708;2022-09-09T14:25:39;6.72;;;2.03;;
11665;SDS011;5889;51.350;6.708;2022-09-09T14:28:07;3.78;;;1.50;;
11665;SDS011;5889;51.350;6.708;2022-09-09T14:30:36;3.88;;;1.17;;
11665;SDS011;5889;51.350;6.708;2022-09-09T14:33:03;3.17;;;0.70;;
11665;SDS011;5889;51.350;6.708;2022-09-09T14:35:30;0.98;;;0.50;;
11665;SDS011;5889;51.350;6.708;2022-09-09T14:37:59;3.58;;;0.85;;
11665;SDS011;5889;51.350;6.708;2022-09-09T14:40:27;3.28;;;0.90;;
11665;SDS011;5889;51.350;6.708;2022-09-09T14:42:54;1.45;;;0.68;;
11665;SDS011;5889;51.350;6.708;2022-09-09T14:45:21;2.47;;;0.93;;
11665;SDS011;5889;51.350;6.708;2022-09-09T14:47:49;1.60;;;0.50;;
11665;SDS011;5889;51.350;6.708;2022-09-09T14:50:16;1.52;;;0.50;;
11665;SDS011;5889;51.350;6.708;2022-09-09T14:52:43;4.13;;;0.70;;
11665;SDS011;5889;51.350;6.708;2022-09-09T14:55:12;1.95;;;0.60;;
11665;SDS011;5889;51.350;6.708;2022-09-09T14:57:38;2.10;;;0.70;;
11665;SDS011;5889;51.350;6.708;2022-09-09T15:00:06;1.93;;;0.80;;
11665;SDS011;5889;51.350;6.708;2022-09-09T15:02:34;5.40;;;0.80;;
11665;SDS011;5889;51.350;6.708;2022-09-09T15:05:01;2.43;;;0.80;;
11665;SDS011;5889;51.350;6.708;2022-09-09T15:07:29;2.70;;;1.03;;
11665;SDS011;5889;51.350;6.708;2022-09-09T15:09:56;12.13;;;1.80;;
11665;SDS011;5889;51.350;6.708;2022-09-09T15:12:25;7.40;;;1.57;;
11665;SDS011;5889;51.350;6.708;2022-09-09T15:14:53;2.90;;;1.20;;
11665;SDS011;5889;51.350;6.708;2022-09-09T15:17:20;2.50;;;1.10;;
11665;SDS011;5889;51.350;6.708;2022-09-09T15:19:49;5.40;;;0.90;;
11665;SDS011;5889;51.350;6.708;2022-09-09T15:22:16;3.15;;;0.68;;
11665;SDS011;5889;51.350;6.708;2022-09-09T15:24:44;4.13;;;0.63;;
11665;SDS011;5889;51.350;6.708;2022-09-09T15:27:10;2.53;;;0.70;;
11665;SDS011;5889;51.350;6.708;2022-09-09T15:29:40;2.15;;;0.60;;
11665;SDS011;5889;51.350;6.708;2022-09-09T15:32:09;2.17;;;0.80;;